Tiempo atmosférico en la estación meteorológica de Bello, Teruel (1006 m.)



Fecha
DESCASC
Temp. máxima en grados centígrados (hora)
DESCASC
Temp. mínima en grados centígrados (hora)
DESCASC
Temp. media en grados centígrados
DESCASC
Racha de viento máxima en m/sg (hora)
DESCASC
Velocidad máxima media en intervalos de 10 minutos(hora)
DESCASC
Precipitaciones diarias en mm
DESCASC
Precipitaciones de 00:00 a 06:00 en mm
DESCASC
Precipitaciones de 06:00 a 12:00 en mm
DESCASC
Precipitaciones de 12:00 a 18:00 en mm
DESCASC
Precipitaciones de 18:00 a 24:00 en mm
DESCASC
18-08-2019 34 (16:00) 14.4 (07:40) 24.2 13.61 (13:00) 8.89 (14:10) 0 0 0 0 0
17-08-2019 34.6 (17:40) 12.8 (07:20) 23.7 10.56 (15:40) 6.67 (00:10) 0 0 0 0 0
16-08-2019 32.4 (16:30) 11.9 (06:30) 22.2 9.17 (17:20) 6.94 (23:59) 0 0 0 0 0
15-08-2019 28.7 (16:10) 13.3 (00:00) 21 11.94 (20:50) 8.06 (20:30) 0 0 0 0 0
14-08-2019 29.5 (17:40) 6.1 (00:00) 17.8 7.78 (13:00) 5 (21:00) 0 0 0 0 0
13-08-2019 25.4 (17:40) 9.6 (00:00) 17.5 10 (18:10) 6.11 (19:20) 0 0 0 0 0
12-08-2019 23.5 (16:00) 11.2 (00:00) 17.3 13.61 (19:30) 8.33 (19:10) 0 0 0 0 0
11-08-2019 29.8 (16:40) 16.7 (00:00) 23.3 13.61 (17:40) 7.5 (03:20) 0 0 0 0 0
10-08-2019 32.5 (16:30) 13.2 (00:00) 22.8 10.83 (16:20) 6.11 (17:00) 0 0 0 0 0
09-08-2019 32 (17:20) 17.7 (00:00) 24.9 14.72 (12:20) 9.44 (12:00) 0 0 0 0 0
08-08-2019 32.1 (16:00) 13.5 (00:00) 22.8 11.67 (18:50) 6.94 (18:50) 0 0 0 0 0
07-08-2019 27.4 (14:40) 19.3 (00:00) 23.3 10 (15:30) 6.39 (17:10) 0 0 0 0 0
06-08-2019 34 (17:20) 12.8 (00:00) 23.4 10.83 (15:20) 6.11 (14:30) 0 0 0 0 0
05-08-2019 34.7 (16:30) 11.8 (00:00) 23.3 14.17 (18:10) 5.83 (16:50) 0 0 0 0 0
04-08-2019 34.7 (16:50) 15.6 (00:00) 25.2 10.56 (18:30) 6.11 (19:30) 0 0 0 0 0
03-08-2019 34.4 (16:30) 14 (00:00) 24.2 11.39 (17:30) 5.83 (18:00) 0 0 0 0 0
02-08-2019 31.2 (16:50) 14 (00:00) 22.6 12.78 (18:30) 7.22 (00:10) 0 0 0 0 0
01-08-2019 32.6 (17:20) 15.2 (00:00) 23.9 12.5 (02:30) 8.33 (02:20) 0 0 0 0 0
31-07-2019 30.1 (16:10) 10.8 (00:00) 20.5 12.5 (16:00) 9.17 (19:00) 0 0 0 0 0
30-07-2019 25.9 (16:40) 10.2 (00:00) 18 12.22 (21:30) 7.78 (17:50) 0 0 0 0 0
29-07-2019 31 (16:40) 9.2 (00:00) 20.1 11.94 (12:30) 6.39 (17:50) 0 0 0 0 0
28-07-2019 25.8 (18:30) 7.4 (00:00) 16.6 10.56 (16:30) 4.72 (16:40) 0 0 0 0 0
27-07-2019 24.2 (14:30) 14.2 (00:00) 19.2 14.72 (16:30) 9.44 (16:30) 0 0 0 0 0
26-07-2019 28.2 (16:10) 15.9 (00:00) 22.1 15.56 (17:30) 11.67 (17:30) 0 0 0 0 0
25-07-2019 33.3 (16:40) 19.3 (00:00) 26.3 14.72 (14:50) 10.56 (14:50) 0.8 0 0 0 0.8
24-07-2019 34.7 (15:30) 15.4 (00:00) 25.1 13.33 (14:30) 7.22 (13:20) 0 0 0 0 0
23-07-2019 36.2 (15:10) 16.1 (00:00) 26.2 15.28 (14:10) 9.72 (19:50) 0 0 0 0 0
22-07-2019 35.1 (17:30) 15.5 (00:00) 25.3 15 (19:30) 11.11 (19:30) 0 0 0 0 0

Gráficas

Temp. máximas Temp. mínimas Temp. medias Precipitaciones Rachas de viento máximas Velocidades máximas media en intervalos de 10 minutos

Datos horarios

Fecha y hora oficial Temperatura (ºC) Velocidad del viento (km/h) Dirección del viento Racha (km/h) Dirección de racha Precipitación (mm) Presión (hPa) Tendencia (hPa) Humedad (%)
2019-08-20 23:00:00 17.3 15 Este 24 Sudeste 0 -- -- 73
2019-08-20 22:00:00 17.3 14 Este 30 Este 0 -- -- 72
2019-08-20 21:00:00 17.6 16 Este 29 Este 0 -- -- 69
2019-08-20 20:00:00 18.6 19 Este 30 Este 0 -- -- 68
2019-08-20 19:00:00 19.6 20 Este 36 Nordeste 0 -- -- 67
2019-08-20 18:00:00 20.4 18 Nordeste 28 Nordeste 0 -- -- 66
2019-08-20 17:00:00 19.7 18 Este 27 Nordeste 0 -- -- 69
2019-08-20 16:00:00 17.9 18 Este 33 Nordeste 0 -- -- 75
2019-08-20 15:00:00 16.6 16 Nordeste 26 Nordeste 0 -- -- 81
2019-08-20 14:00:00 14.8 18 Nordeste 26 Este 0 -- -- 89
2019-08-20 13:00:00 14 16 Nordeste 28 Nordeste 0 -- -- 93
2019-08-20 12:00:00 13.4 15 Nordeste 35 Nordeste 0 -- -- 95
2019-08-20 11:00:00 13.2 19 Nordeste 28 Nordeste 0 -- -- 95
2019-08-20 10:00:00 13.2 11 Este 24 Este 2 -- -- 95
2019-08-20 09:00:00 13 11 Nordeste 22 Nordeste 0 -- -- 93
2019-08-20 08:00:00 13.5 12 Este 20 Nordeste 0 -- -- 91
2019-08-20 07:00:00 13.9 10 Este 19 Este 0 -- -- 88
2019-08-20 06:00:00 13.5 11 Este 22 Nordeste 0 -- -- 91
2019-08-20 05:00:00 14 17 Nordeste 30 Nordeste 0 -- -- 89
2019-08-20 04:00:00 14.4 16 Nordeste 26 Nordeste 0 -- -- 85
2019-08-20 03:00:00 15.1 13 Nordeste 23 Nordeste 0 -- -- 79
2019-08-20 02:00:00 15.4 13 Este 26 Este 0 -- -- 78
2019-08-20 01:00:00 15.9 15 Este 29 Este 0 -- -- 74
2019-08-20 00:00:00 16.1 16 Este 30 Nordeste 0 -- -- 72
2019-08-19 23:00:00 16.6 20 Nordeste 31 Nordeste 0 -- -- 68
2019-08-19 22:00:00 18.1 17 Este 26 Este 0 -- -- 62
2019-08-19 21:00:00 18.8 15 Este 30 Nordeste 0 -- -- 59
2019-08-19 20:00:00 20.3 18 Este 35 Este 0 -- -- 55
2019-08-19 19:00:00 21.3 20 Este 41 Nordeste 0 -- -- 52
2019-08-19 18:00:00 22.9 30 Nordeste 53 Nordeste 0 -- -- 48
2019-08-19 17:00:00 23.5 32 Este 55 Nordeste 0 -- -- 46
2019-08-19 16:00:00 25.5 35 Nordeste 49 Nordeste 0 -- -- 42
2019-08-19 15:00:00 27.3 28 Nordeste 40 Nordeste 0 -- -- 40
2019-08-19 14:00:00 26.7 16 Este 31 Este 0 -- -- 41
2019-08-19 13:00:00 25.4 11 Este 26 Este 0 -- -- 45
2019-08-19 12:00:00 22.5 14 Nordeste 22 Nordeste 0 -- -- 51
2019-08-19 11:00:00 20.5 13 Nordeste 25 Este 0 -- -- 59
2019-08-19 10:00:00 18.1 14 Este 21 Este 0 -- -- 67
2019-08-19 09:00:00 15.3 15 Este 22 Este 0 -- -- 78
2019-08-19 08:00:00 13.4 10 Este 21 Este 0 -- -- 87
2019-08-19 07:00:00 13.2 10 Este 20 Nordeste 0 -- -- 88
2019-08-19 06:00:00 13.2 10 Este 19 Nordeste 0 -- -- 90
2019-08-19 05:00:00 13.7 12 Este 21 Este 0 -- -- 88
2019-08-19 04:00:00 14.3 14 Este 25 Este 0 -- -- 88
2019-08-19 03:00:00 15.4 13 Este 21 Este 0 -- -- 84
2019-08-19 02:00:00 16.5 6 Este 23 Este 0 -- -- 81
2019-08-19 01:00:00 17.4 12 Este 17 Este 0 -- -- 77
2019-08-19 00:00:00 19.7 8 Sudeste 12 Este 0 -- -- 62
2019-08-18 23:00:00 21.5 3 Sudeste 13 Oeste 0 -- -- 28
2019-08-18 22:00:00 25.5 11 Oeste 24 Oeste 0 -- -- 24
2019-08-18 21:00:00 28.9 15 Oeste 35 Oeste 0 -- -- 21
2019-08-18 20:00:00 31 23 Oeste 37 Noroeste 0 -- -- 19
2019-08-18 19:00:00 32 19 Oeste 36 Oeste 0 -- -- 19
2019-08-18 18:00:00 31.9 22 Oeste 45 Oeste 0 -- -- 19
2019-08-18 17:00:00 33.3 28 Oeste 48 Oeste 0 -- -- 18
2019-08-18 16:00:00 34 26 Oeste 46 Oeste 0 -- -- 18
2019-08-18 15:00:00 33.3 20 Oeste 45 Oeste 0 -- -- 21
2019-08-18 14:00:00 32.1 30 Oeste 46 Oeste 0 -- -- 22
2019-08-18 13:00:00 31.5 28 Oeste 49 Oeste 0 -- -- 23
2019-08-18 12:00:00 31.2 26 Oeste 42 Oeste 0 -- -- 24
2019-08-18 11:00:00 28.5 6 Nordeste 10 Nordeste 0 -- -- 32
2019-08-18 10:00:00 23.7 0 Calma 6 Nordeste 0 -- -- 48
2019-08-18 09:00:00 18.8 2 Nordeste 8 Norte 0 -- -- 59
2019-08-18 08:00:00 14.7 3 Sur 7 Oeste 0 -- -- 73
2019-08-18 07:00:00 14.9 5 Oeste 8 Nordeste 0 -- -- 77
2019-08-18 06:00:00 17.2 5 Norte 13 Norte 0 -- -- 69
2019-08-18 05:00:00 19.8 3 Oeste 9 Sur 0 -- -- 59
2019-08-18 04:00:00 19.9 4 Norte 8 Nordeste 0 -- -- 54
2019-08-18 03:00:00 21.2 3 Sur 22 Sudoeste 0 -- -- 49
2019-08-18 02:00:00 20.7 4 Norte 16 Sur 0 -- -- 57
2019-08-18 01:00:00 21.2 2 Nordeste 12 Sudoeste 0 -- -- 40
2019-08-18 00:00:00 21.7 6 Sudoeste 14 Sudoeste 0 -- -- 36
2019-08-17 23:00:00 22.4 9 Oeste 19 Sudoeste 0 -- -- 32
2019-08-17 22:00:00 24.2 12 Sudoeste 15 Oeste 0 -- -- 29
2019-08-17 21:00:00 29.9 11 Oeste 27 Oeste 0 -- -- 21
2019-08-17 20:00:00 32.8 18 Oeste 31 Oeste 0 -- -- 19
2019-08-17 19:00:00 33.9 16 Oeste 31 Oeste 0 -- -- 18
2019-08-17 18:00:00 34.1 15 Oeste 37 Noroeste 0 -- -- 18
2019-08-17 17:00:00 34.2 23 Oeste 35 Oeste 0 -- -- 17
2019-08-17 16:00:00 33.7 17 Oeste 38 Sudoeste 0 -- -- 21
2019-08-17 15:00:00 33.1 17 Sudoeste 35 Oeste 0 -- -- 22
2019-08-17 14:00:00 32.2 13 Noroeste 28 Noroeste 0 -- -- 26
2019-08-17 13:00:00 30.8 13 Oeste 32 Oeste 0 -- -- 28
2019-08-17 12:00:00 28.9 6 Nordeste 12 Norte 0 -- -- 37
2019-08-17 11:00:00 25.9 5 Norte 8 Nordeste 0 -- -- 44
2019-08-17 10:00:00 22.8 2 Nordeste 6 Nordeste 0 -- -- 59
2019-08-17 09:00:00 18.8 3 Nordeste 8 Sudoeste 0 -- -- 69
2019-08-17 08:00:00 14.3 6 Sudoeste 9 Sudoeste 0 -- -- 85
2019-08-17 07:00:00 12.9 5 Sudoeste 8 Noroeste 0 -- -- 84
2019-08-17 06:00:00 14.6 5 Noroeste 8 Noroeste 0 -- -- 84
2019-08-17 05:00:00 15.9 2 Oeste 6 Sur 0 -- -- 84
2019-08-17 04:00:00 18 0 Calma 8 Noroeste 0 -- -- 78
2019-08-17 03:00:00 20 6 Norte 25 Sur 0 -- -- 75
2019-08-17 02:00:00 20.7 18 Sur 32 Sur 0 -- -- 78
2019-08-17 01:00:00 22 22 Sur 35 Sur 0 -- -- 72
2019-08-17 00:00:00 23.4 25 Sur 33 Sur 0 -- -- 64
2019-08-16 23:00:00 22.4 13 Sur 21 Sudeste 0 -- -- 49
2019-08-16 22:00:00 23.7 13 Sudeste 21 Sudeste 0 -- -- 45
2019-08-16 21:00:00 27.1 14 Sudeste 26 Sudeste 0 -- -- 39
2019-08-16 20:00:00 29.4 14 Este 27 Este 0 -- -- 35
2019-08-16 19:00:00 30.2 18 Este 27 Este 0 -- -- 33
2019-08-16 18:00:00 30.2 18 Este 33 Nordeste 0 -- -- 33
2019-08-16 17:00:00 31.5 11 Este 25 Nordeste 0 -- -- 31
2019-08-16 16:00:00 31.1 9 Nordeste 20 Nordeste 0 -- -- 32
2019-08-16 15:00:00 30.4 8 Noroeste 23 Nordeste 0 -- -- 34
2019-08-16 14:00:00 30.4 12 Nordeste 19 Nordeste 0 -- -- 35
2019-08-16 13:00:00 28.2 7 Nordeste 17 Nordeste 0 -- -- 41
2019-08-16 12:00:00 26.5 4 Nordeste 12 Nordeste 0 -- -- 45
2019-08-16 11:00:00 24.2 4 Nordeste 11 Sur 0 -- -- 52
2019-08-16 10:00:00 20.8 3 Este 6 Este 0 -- -- 56
2019-08-16 09:00:00 16 2 Noroeste 5 Noroeste 0 -- -- 66
2019-08-16 08:00:00 12.2 3 Este 9 Sudoeste 0 -- -- 74
2019-08-16 07:00:00 12.1 9 Sudoeste 11 Sudoeste 0 -- -- 76
2019-08-16 06:00:00 12.4 4 Sudoeste 5 Noroeste 0 -- -- 75
2019-08-16 05:00:00 12.6 3 Noroeste 6 Oeste 0 -- -- 73
2019-08-16 04:00:00 14 0 Calma 10 Sudoeste 0 -- -- 67
2019-08-16 03:00:00 14.6 8 Oeste 9 Oeste 0 -- -- 69
2019-08-16 02:00:00 15 2 Sudoeste 6 Sur 0 -- -- 67
2019-08-16 01:00:00 16.3 5 Este 11 Este 0 -- -- 64
2019-08-16 00:00:00 17.4 8 Este 23 Este 0 -- -- 61
2019-08-15 23:00:00 18.3 13 Este 34 Nordeste 0 -- -- 58
2019-08-15 22:00:00 19.4 22 Este 41 Este 0 -- -- 54
2019-08-15 21:00:00 21.5 29 Este 43 Este 0 -- -- 51
2019-08-15 20:00:00 25.2 26 Nordeste 37 Nordeste 0 -- -- 43
2019-08-15 19:00:00 28.3 11 Nordeste 25 Este 0 -- -- 41
2019-08-15 18:00:00 28.4 14 Nordeste 33 Nordeste 0 -- -- 41
2019-08-15 17:00:00 28.5 16 Este 28 Norte 0 -- -- 41
2019-08-15 16:00:00 28.5 12 Nordeste 30 Nordeste 0 -- -- 39
2019-08-15 15:00:00 27.6 16 Nordeste 35 Nordeste 0 -- -- 40
2019-08-15 14:00:00 27.3 12 Norte 21 Nordeste 0 -- -- 41
2019-08-15 13:00:00 25 8 Este 16 Este 0 -- -- 48
2019-08-15 12:00:00 23 9 Nordeste 18 Este 0 -- -- 52
2019-08-15 11:00:00 21 13 Este 26 Nordeste 0 -- -- 63
2019-08-15 10:00:00 19.3 17 Nordeste 27 Nordeste 0 -- -- 71
2019-08-15 09:00:00 17.3 17 Nordeste 30 Nordeste 0 -- -- 77
2019-08-15 08:00:00 15 6 Este 18 Nordeste 0 -- -- 87
2019-08-15 07:00:00 14 8 Este 13 Este 0 -- -- 90
2019-08-15 06:00:00 14.1 8 Este 17 Este 0 -- -- 85
2019-08-15 05:00:00 15 9 Este 15 Este 0 -- -- 80
2019-08-15 04:00:00 15.3 8 Sudeste 15 Este 0 -- -- 74
2019-08-15 03:00:00 16.7 8 Este 16 Sudeste 0 -- -- 66
2019-08-15 02:00:00 17.1 7 Sudeste 18 Este 0 -- -- 62
2019-08-15 01:00:00 19 13 Este 26 Este 0 -- -- 56
2019-08-15 00:00:00 19.1 7 Sur 22 Este 0 -- -- 53
2019-08-14 23:00:00 20.6 7 Este 22 Este 0 -- -- 41
2019-08-14 22:00:00 22.1 15 Nordeste 26 Este 0 -- -- 37
2019-08-14 21:00:00 24.9 18 Nordeste 27 Nordeste 0 -- -- 32
2019-08-14 20:00:00 28.8 14 Norte 28 Norte 0 -- -- 22
2019-08-14 19:00:00 29.2 12 Norte 27 Norte 0 -- -- 23
2019-08-14 18:00:00 29.3 10 Norte 27 Norte 0 -- -- 24
2019-08-14 17:00:00 29.2 12 Nordeste 28 Norte 0 -- -- 24
2019-08-14 16:00:00 28 11 Nordeste 25 Norte 0 -- -- 25
2019-08-14 15:00:00 27.1 12 Noroeste 27 Noroeste 0 -- -- 26
2019-08-14 14:00:00 26.2 10 Noroeste 24 Nordeste 0 -- -- 24
2019-08-14 13:00:00 24.9 16 Norte 28 Norte 0 -- -- 29
2019-08-14 12:00:00 22.8 6 Norte 12 Oeste 0 -- -- 40
2019-08-14 11:00:00 20.1 4 Nordeste 8 Nordeste 0 -- -- 49
2019-08-14 10:00:00 15.9 7 Nordeste 10 Nordeste 0 -- -- 56
2019-08-14 09:00:00 11.9 2 Este 5 Sudoeste 0 -- -- 69
2019-08-14 08:00:00 7.1 0 Calma 6 Noroeste 0 -- -- 80
2019-08-14 07:00:00 6.1 2 Sudoeste 8 Sudoeste 0 -- -- 81
2019-08-14 06:00:00 6.9 6 Sudoeste 9 Sudoeste 0 -- -- 78
2019-08-14 05:00:00 7.8 3 Noroeste 6 Oeste 0 -- -- 77
2019-08-14 04:00:00 8.2 2 Sudoeste 6 Sudoeste 0 -- -- 74
2019-08-14 03:00:00 9 3 Sudoeste 5 Oeste 0 -- -- 74
2019-08-14 02:00:00 10.2 3 Sur 5 Sudoeste 0 -- -- 68
2019-08-14 01:00:00 12.3 5 Sudeste 12 Sudeste 0 -- -- 64
2019-08-14 00:00:00 14 6 Sudeste 20 Este 0 -- -- 59
2019-08-13 23:00:00 15.1 11 Este 19 Este 0 -- -- 56
2019-08-13 22:00:00 16.5 8 Este 18 Este 0 -- -- 51
2019-08-13 21:00:00 19.3 14 Este 28 Este 0 -- -- 43
2019-08-13 20:00:00 22.1 19 Este 31 Este 0 -- -- 35
2019-08-13 19:00:00 24.8 17 Norte 36 Norte 0 -- -- 25
2019-08-13 18:00:00 25.1 18 Norte 29 Norte 0 -- -- 26
2019-08-13 17:00:00 24.8 16 Norte 27 Noroeste 0 -- -- 30
2019-08-13 16:00:00 24.5 13 Norte 32 Nordeste 0 -- -- 34
2019-08-13 15:00:00 23.4 11 Nordeste 26 Norte 0 -- -- 36
2019-08-13 14:00:00 21.4 6 Nordeste 17 Nordeste 0 -- -- 42
2019-08-13 13:00:00 20.1 7 Norte 17 Nordeste 0 -- -- 44
2019-08-13 12:00:00 18.2 6 Nordeste 17 Este 0 -- -- 47
2019-08-13 11:00:00 15.8 5 Este 15 Nordeste 0 -- -- 52
2019-08-13 10:00:00 13.9 3 Nordeste 7 Este 0 -- -- 58
2019-08-13 09:00:00 12.2 4 Sudeste 10 Sur 0 -- -- 64
2019-08-13 08:00:00 11.6 6 Sur 8 Sur 0 -- -- 67
2019-08-13 07:00:00 11.3 3 Sur 7 Sur 0 -- -- 68
2019-08-13 06:00:00 10.5 6 Sur 8 Sur 0 -- -- 72
2019-08-13 05:00:00 10.5 6 Sudeste 11 Sudeste 0 -- -- 72
2019-08-13 04:00:00 10.8 8 Sudeste 13 Sudeste 0 -- -- 73
2019-08-13 03:00:00 9.8 9 Sur 12 Sudeste 0 -- -- 77
2019-08-13 02:00:00 10 5 Sudeste 12 Sudeste 0 -- -- 76
2019-08-13 01:00:00 11.2 7 Este 14 Este 0 -- -- 72
2019-08-13 00:00:00 12.5 12 Este 21 Nordeste 0 -- -- 66
2019-08-12 23:00:00 13.6 14 Nordeste 26 Nordeste 0 -- -- 62
2019-08-12 22:00:00 14.8 14 Nordeste 31 Nordeste 0 -- -- 58
2019-08-12 21:00:00 16.5 19 Nordeste 45 Nordeste 0 -- -- 52
2019-08-12 20:00:00 19.3 26 Nordeste 49 Este 0 -- -- 40
2019-08-12 19:00:00 20.5 29 Nordeste 40 Nordeste 0 -- -- 40
2019-08-12 18:00:00 22.1 23 Nordeste 44 Nordeste 0 -- -- 36
2019-08-12 17:00:00 22.8 22 Nordeste 43 Nordeste 0 -- -- 34
2019-08-12 16:00:00 23.5 10 Este 24 Norte 0 -- -- 32
2019-08-12 15:00:00 22.1 11 Noroeste 26 Noroeste 0 -- -- 35
2019-08-12 14:00:00 21.3 12 Norte 22 Norte 0 -- -- 38
2019-08-12 13:00:00 20.4 10 Norte 23 Norte 0 -- -- 42
2019-08-12 12:00:00 19 10 Norte 20 Noroeste 0 -- -- 49
2019-08-12 11:00:00 17.3 8 Norte 17 Norte 0 -- -- 58
2019-08-12 10:00:00 15.5 6 Nordeste 15 Noroeste 0 -- -- 69
2019-08-12 09:00:00 13 10 Norte 15 Norte 0 -- -- 77
2019-08-12 08:00:00 11.4 6 Noroeste 14 Noroeste 0 -- -- 84
2019-08-12 07:00:00 11.5 8 Noroeste 13 Noroeste 0 -- -- 83
2019-08-12 06:00:00 12.6 10 Noroeste 17 Noroeste 0 -- -- 79
2019-08-12 05:00:00 12 3 Oeste 7 Este 0 -- -- 78
2019-08-12 04:00:00 12.7 5 Sudeste 8 Este 0 -- -- 76
2019-08-12 03:00:00 14.2 6 Este 13 Este 0 -- -- 74
2019-08-12 02:00:00 14.5 4 Sur 10 Este 0 -- -- 72
2019-08-12 01:00:00 15.6 9 Este 17 Este 0 -- -- 69
2019-08-12 00:00:00 16.7 7 Nordeste 19 Nordeste 0 -- -- 66
2019-08-11 23:00:00 17.9 13 Nordeste 31 Nordeste 0 -- -- 61
2019-08-11 22:00:00 19.5 20 Este 34 Nordeste 0 -- -- 55
2019-08-11 21:00:00 23.6 12 Nordeste 33 Oeste 0 -- -- 43
2019-08-11 20:00:00 27.4 20 Noroeste 35 Sudoeste 0 -- -- 17
2019-08-11 19:00:00 28.4 19 Oeste 37 Oeste 0 -- -- 21
2019-08-11 18:00:00 28.8 18 Oeste 49 Oeste 0 -- -- 20
2019-08-11 17:00:00 29.8 26 Sudoeste 44 Oeste 0 -- -- 19
2019-08-11 16:00:00 29.5 20 Oeste 39 Oeste 0 -- -- 21
2019-08-11 15:00:00 28.8 24 Oeste 39 Oeste 0 -- -- 22
2019-08-11 14:00:00 28.2 20 Oeste 35 Sudoeste 0 -- -- 27
2019-08-11 13:00:00 25.1 6 Este 17 Nordeste 0 -- -- 42
2019-08-11 12:00:00 23.8 5 Sur 13 Noroeste 0 -- -- 45
2019-08-11 11:00:00 21.5 4 Este 10 Nordeste 0 -- -- 53
2019-08-11 10:00:00 20.2 4 Norte 30 Norte 0 -- -- 55
2019-08-11 09:00:00 18.9 18 Norte 33 Norte 0 -- -- 61
2019-08-11 08:00:00 18 8 Noroeste 17 Sudoeste 0 -- -- 78
2019-08-11 07:00:00 17.5 10 Sudoeste 15 Sudoeste 0 -- -- 78
2019-08-11 06:00:00 18.7 11 Sudoeste 22 Sur 0 -- -- 75
2019-08-11 05:00:00 19.4 17 Sur 29 Sur 0 -- -- 74
2019-08-11 04:00:00 20.3 22 Sur 35 Sur 0 -- -- 74
2019-08-11 03:00:00 20.2 13 Sudeste 22 Sudeste 0 -- -- 77
2019-08-11 02:00:00 19.4 8 Sudeste 18 Este 0 -- -- 57
2019-08-11 01:00:00 20.6 11 Este 26 Este 0 -- -- 54
2019-08-11 00:00:00 21 14 Este 21 Este 0 -- -- 54
2019-08-10 23:00:00 21.9 12 Este 17 Este 0 -- -- 52
2019-08-10 22:00:00 24.5 5 Este 18 Este 0 -- -- 46
2019-08-10 21:00:00 26.4 14 Este 26 Este 0 -- -- 43
2019-08-10 20:00:00 28.8 12 Este 29 Nordeste 0 -- -- 37
2019-08-10 19:00:00 30.8 10 Nordeste 28 Noroeste 0 -- -- 34
2019-08-10 18:00:00 32 21 Oeste 35 Oeste 0 -- -- 23
2019-08-10 17:00:00 32.3 22 Oeste 39 Oeste 0 -- -- 24
2019-08-10 16:00:00 31.9 8 Nordeste 22 Sudeste 0 -- -- 32
2019-08-10 15:00:00 30.2 8 Nordeste 19 Este 0 -- -- 36
2019-08-10 14:00:00 28.2 10 Este 18 Este 0 -- -- 40
2019-08-10 13:00:00 26 10 Nordeste 18 Este 0 -- -- 47
2019-08-10 12:00:00 24.1 7 Nordeste 19 Nordeste 0 -- -- 54
2019-08-10 11:00:00 22.1 7 Este 12 Nordeste 0 -- -- 59
2019-08-10 10:00:00 19.6 7 Norte 13 Noroeste 0 -- -- 66
2019-08-10 09:00:00 17.9 9 Norte 14 Norte 0 -- -- 72
2019-08-10 08:00:00 14.3 6 Sur 7 Sudeste 0 -- -- 83
2019-08-10 07:00:00 14.3 6 Noroeste 10 Oeste 0 -- -- 87
2019-08-10 06:00:00 13.5 4 Oeste 8 Sur 0 -- -- 82
2019-08-10 05:00:00 13.6 4 Sur 7 Norte 0 -- -- 82
2019-08-10 04:00:00 16.1 5 Norte 10 Oeste 0 -- -- 75
2019-08-10 03:00:00 15.8 4 Sudoeste 9 Oeste 0 -- -- 75
2019-08-10 02:00:00 16.9 4 Sudoeste 13 Oeste 0 -- -- 73
2019-08-10 01:00:00 18.4 9 Oeste 13 Noroeste 0 -- -- 70
2019-08-10 00:00:00 19.5 5 Norte 26 Noroeste 0 -- -- 70
2019-08-09 23:00:00 20.6 20 Norte 40 Norte 0 -- -- 69
2019-08-09 22:00:00 26.4 14 Noroeste 36 Oeste 0 -- -- 45
2019-08-09 21:00:00 28.5 19 Oeste 41 Oeste 0 -- -- 39
2019-08-09 20:00:00 30.1 25 Oeste 48 Oeste 0 -- -- 36
2019-08-09 19:00:00 31.2 23 Oeste 48 Oeste 0 -- -- 33
2019-08-09 18:00:00 31.8 26 Oeste 48 Oeste 0 -- -- 31
2019-08-09 17:00:00 31.7 26 Oeste 48 Oeste 0 -- -- 32
2019-08-09 16:00:00 31.3 25 Oeste 53 Oeste 0 -- -- 33
2019-08-09 15:00:00 31 29 Oeste 48 Oeste 0 -- -- 33
2019-08-09 14:00:00 30.1 28 Oeste 45 Oeste 0 -- -- 33
2019-08-09 13:00:00 29.4 30 Oeste 53 Oeste 0 -- -- 32
2019-08-09 12:00:00 28 34 Oeste 53 Oeste 0 -- -- 33
2019-08-09 11:00:00 27 28 Oeste 46 Oeste 0 -- -- 40
2019-08-09 10:00:00 25 19 Oeste 30 Oeste 0 -- -- 46
2019-08-09 09:00:00 23.6 15 Oeste 22 Sudoeste 0 -- -- 50
2019-08-09 08:00:00 19.4 6 Este 10 Este 0 -- -- 56
2019-08-09 07:00:00 18.8 4 Noroeste 23 Sudoeste 0 -- -- 56
2019-08-09 06:00:00 19.9 13 Sudoeste 20 Sudoeste 0 -- -- 55
2019-08-09 05:00:00 20.1 15 Sudoeste 22 Sudoeste 0 -- -- 54
2019-08-09 04:00:00 18.2 12 Sudoeste 15 Sudoeste 0 -- -- 59
2019-08-09 03:00:00 17.9 5 Norte 12 Sudoeste 0 -- -- 57
2019-08-09 02:00:00 19.7 9 Oeste 17 Oeste 0 -- -- 52
2019-08-09 01:00:00 21.6 11 Sudoeste 17 Sudoeste 0 -- -- 48
2019-08-09 00:00:00 22.6 10 Sudoeste 17 Sudoeste 0 -- -- 45
2019-08-08 23:00:00 23.4 8 Sudoeste 17 Sudoeste 0 -- -- 43
2019-08-08 22:00:00 25.4 10 Sudoeste 26 Oeste 0 -- -- 40
2019-08-08 21:00:00 29 16 Oeste 32 Oeste 0 -- -- 33
2019-08-08 20:00:00 30.6 21 Oeste 38 Oeste 0 -- -- 33
2019-08-08 19:00:00 31.5 19 Oeste 42 Oeste 0 -- -- 31
2019-08-08 18:00:00 31.9 22 Oeste 40 Oeste 0 -- -- 31
2019-08-08 17:00:00 31.9 22 Oeste 40 Oeste 0 -- -- 31
2019-08-08 16:00:00 32.1 20 Oeste 40 Oeste 0 -- -- 31
2019-08-08 15:00:00 31.3 15 Oeste 39 Oeste 0 -- -- 33
2019-08-08 14:00:00 29.9 12 Oeste 29 Oeste 0 -- -- 33
2019-08-08 13:00:00 28.4 10 Oeste 24 Oeste 0 -- -- 35
2019-08-08 12:00:00 26.8 10 Oeste 23 Oeste 0 -- -- 37
2019-08-08 11:00:00 24.5 10 Sudoeste 21 Oeste 0 -- -- 43
2019-08-08 10:00:00 22.2 6 Nordeste 11 Norte 0 -- -- 51
2019-08-08 09:00:00 19.5 2 Este 5 Oeste 0 -- -- 59
2019-08-08 08:00:00 14.4 3 Sudoeste 6 Oeste 0 -- -- 73
2019-08-08 07:00:00 13.7 2 Nordeste 7 Nordeste 0 -- -- 73
2019-08-08 06:00:00 16.2 3 Sudoeste 6 Este 0 -- -- 67
2019-08-08 05:00:00 15.4 0 Calma 8 Nordeste 0 -- -- 67
2019-08-08 04:00:00 15 5 Nordeste 7 Nordeste 0 -- -- 68
2019-08-08 03:00:00 16.2 4 Oeste 14 Oeste 0 -- -- 63
2019-08-08 02:00:00 16.2 9 Oeste 12 Sudoeste 0 -- -- 61
2019-08-08 01:00:00 17.3 9 Oeste 15 Sudoeste 0 -- -- 57
2019-08-08 00:00:00 19.7 10 Sudoeste 15 Oeste 0 -- -- 50
2019-08-07 23:00:00 21.8 6 Oeste 15 Oeste 0 -- -- 44
2019-08-07 22:00:00 23.2 7 Noroeste 12 Oeste 0 -- -- 41
2019-08-07 21:00:00 25.2 10 Noroeste 16 Noroeste 0 -- -- 36
2019-08-07 20:00:00 25.7 9 Oeste 20 Oeste 0 -- -- 35
2019-08-07 19:00:00 26.1 14 Oeste 30 Oeste 0 -- -- 35
2019-08-07 18:00:00 26.3 15 Noroeste 33 Oeste 0 -- -- 35
2019-08-07 17:00:00 26.7 17 Oeste 32 Oeste 0 -- -- 32
2019-08-07 16:00:00 26.8 16 Oeste 36 Oeste 0 -- -- 34
2019-08-07 15:00:00 27.4 14 Oeste 28 Sudoeste 0 -- -- 32
2019-08-07 14:00:00 26.6 13 Noroeste 24 Noroeste 0 -- -- 35
2019-08-07 13:00:00 26.2 13 Noroeste 22 Noroeste 0 -- -- 34
2019-08-07 12:00:00 26.1 14 Noroeste 24 Noroeste 0 -- -- 35
2019-08-07 11:00:00 25.4 15 Noroeste 25 Noroeste 0 -- -- 35
2019-08-07 10:00:00 23.5 10 Noroeste 15 Noroeste 0 -- -- 37
2019-08-07 09:00:00 21 8 Noroeste 18 Noroeste 0 -- -- 39
2019-08-07 08:00:00 20.4 7 Noroeste 13 Noroeste 0 -- -- 40
2019-08-07 07:00:00 21.2 3 Oeste 17 Sudoeste 0 -- -- 38
2019-08-07 06:00:00 22.1 8 Sudoeste 25 Oeste 0 -- -- 37
2019-08-07 05:00:00 23.2 12 Sudoeste 19 Oeste 0 -- -- 34
2019-08-07 04:00:00 21.1 9 Sudoeste 10 Sudoeste 0 -- -- 33
2019-08-07 03:00:00 20.7 4 Sudoeste 13 Sudoeste 0 -- -- 29
2019-08-07 02:00:00 19.5 5 Sudoeste 13 Sudoeste 0 -- -- 29
2019-08-07 01:00:00 21.5 5 Nordeste 15 Sudoeste 0 -- -- 25
2019-08-07 00:00:00 22.1 12 Oeste 19 Sudoeste 0 -- -- 24
2019-08-06 23:00:00 22.5 13 Sudoeste 17 Sudoeste 0 -- -- 25
2019-08-06 22:00:00 25.3 12 Oeste 22 Oeste 0 -- -- 22
2019-08-06 21:00:00 29.4 13 Oeste 31 Oeste 0 -- -- 18
2019-08-06 20:00:00 31.9 19 Oeste 29 Oeste 0 -- -- 16
2019-08-06 19:00:00 33.5 18 Oeste 31 Oeste 0 -- -- 16
2019-08-06 18:00:00 33.7 17 Noroeste 34 Oeste 0 -- -- 17
2019-08-06 17:00:00 33.9 15 Oeste 32 Oeste 0 -- -- 17
2019-08-06 16:00:00 33.1 16 Sudoeste 39 Oeste 0 -- -- 18
2019-08-06 15:00:00 32.8 21 Noroeste 37 Noroeste 0 -- -- 19
2019-08-06 14:00:00 32.5 19 Oeste 35 Oeste 0 -- -- 20
2019-08-06 13:00:00 31.4 14 Oeste 35 Noroeste 0 -- -- 22
2019-08-06 12:00:00 30.3 20 Oeste 34 Noroeste 0 -- -- 25
2019-08-06 11:00:00 27.3 4 Norte 17 Norte 0 -- -- 36
2019-08-06 10:00:00 23.6 8 Norte 13 Norte 0 -- -- 52
2019-08-06 09:00:00 19.2 6 Norte 9 Norte 0 -- -- 59
2019-08-06 08:00:00 13.9 0 Calma 4 Sudeste 0 -- -- 63
2019-08-06 07:00:00 13.4 0 Calma 10 Oeste 0 -- -- 61
2019-08-06 06:00:00 14.5 4 Oeste 8 Oeste 0 -- -- 55
2019-08-06 05:00:00 15.6 4 Este 9 Sur 0 -- -- 60
2019-08-06 04:00:00 17 2 Sudeste 14 Oeste 0 -- -- 51
2019-08-06 03:00:00 18.6 5 Norte 12 Nordeste 0 -- -- 54
2019-08-06 02:00:00 19.3 4 Norte 13 Sudeste 0 -- -- 45
2019-08-06 01:00:00 20.9 8 Sudoeste 19 Sudoeste 0 -- -- 33
2019-08-06 00:00:00 20.6 5 Sudoeste 15 Oeste 0 -- -- 34
2019-08-05 23:00:00 24.7 2 Nordeste 13 Sur 0 -- -- 51
2019-08-05 22:00:00 26.2 8 Sudeste 15 Sudeste 0 -- -- 46
2019-08-05 21:00:00 31.1 5 Noroeste 21 Oeste 0 -- -- 20
2019-08-05 20:00:00 33.2 12 Oeste 26 Noroeste 0 -- -- 17
2019-08-05 19:00:00 34.1 15 Oeste 51 Oeste 0 -- -- 18
2019-08-05 18:00:00 34.4 15 Noroeste 36 Oeste 0 -- -- 19
2019-08-05 17:00:00 34.4 17 Noroeste 36 Oeste 0 -- -- 19
2019-08-05 16:00:00 34.6 14 Noroeste 34 Oeste 0 -- -- 19
2019-08-05 15:00:00 33.6 14 Oeste 33 Oeste 0 -- -- 20
2019-08-05 14:00:00 33.3 14 Noroeste 34 Noroeste 0 -- -- 20
2019-08-05 13:00:00 32.1 9 Oeste 27 Oeste 0 -- -- 21
2019-08-05 12:00:00 30.8 7 Sudeste 12 Este 0 -- -- 26
2019-08-05 11:00:00 27.8 3 Norte 9 Sudeste 0 -- -- 41
2019-08-05 10:00:00 23.1 3 Este 6 Norte 0 -- -- 53
2019-08-05 09:00:00 18.6 5 Nordeste 6 Nordeste 0 -- -- 54
2019-08-05 08:00:00 13.7 4 Oeste 9 Oeste 0 -- -- 66
2019-08-05 07:00:00 12 0 Calma 5 Sudeste 0 -- -- 74
2019-08-05 06:00:00 13.8 0 Calma 6 Noroeste 0 -- -- 70
2019-08-05 05:00:00 14.9 3 Oeste 8 Oeste 0 -- -- 71
2019-08-05 04:00:00 17.3 5 Norte 18 Sur 0 -- -- 66
2019-08-05 03:00:00 20.1 18 Sur 24 Sur 0 -- -- 64
2019-08-05 02:00:00 17.6 6 Sudoeste 23 Nordeste 0 -- -- 38
2019-08-05 01:00:00 18.4 4 Sudoeste 12 Sudoeste 0 -- -- 36
2019-08-05 00:00:00 20.3 12 Oeste 17 Oeste 0 -- -- 32
2019-08-04 23:00:00 23.2 8 Oeste 10 Oeste 0 -- -- 29
2019-08-04 22:00:00 24.9 2 Sur 15 Noroeste 0 -- -- 26
2019-08-04 21:00:00 30.7 12 Noroeste 28 Oeste 0 -- -- 20
2019-08-04 20:00:00 32.7 17 Noroeste 35 Noroeste 0 -- -- 19
2019-08-04 19:00:00 33.5 14 Oeste 38 Oeste 0 -- -- 20
2019-08-04 18:00:00 34 19 Noroeste 34 Oeste 0 -- -- 20
2019-08-04 17:00:00 34.3 14 Oeste 36 Oeste 0 -- -- 19
2019-08-04 16:00:00 34.2 10 Noroeste 37 Sudoeste 0 -- -- 20
2019-08-04 15:00:00 33.4 16 Oeste 34 Sudoeste 0 -- -- 21
2019-08-04 14:00:00 32.7 18 Noroeste 37 Oeste 0 -- -- 22
2019-08-04 13:00:00 31.5 8 Norte 18 Noroeste 0 -- -- 27
2019-08-04 12:00:00 29.6 5 Nordeste 11 Nordeste 0 -- -- 34
2019-08-04 11:00:00 27 4 Nordeste 9 Nordeste 0 -- -- 43
2019-08-04 10:00:00 23.3 3 Norte 8 Norte 0 -- -- 56
2019-08-04 09:00:00 19.5 5 Norte 9 Norte 0 -- -- 64
2019-08-04 08:00:00 15.6 4 Norte 7 Oeste 0 -- -- 71
2019-08-04 07:00:00 15.8 2 Oeste 11 Sudoeste 0 -- -- 77
2019-08-04 06:00:00 17.6 6 Sudoeste 9 Sudoeste 0 -- -- 73
2019-08-04 05:00:00 18.7 5 Sudoeste 10 Sudoeste 0 -- -- 70
2019-08-04 04:00:00 18.8 3 Norte 12 Este 0 -- -- 65
2019-08-04 03:00:00 20.2 5 Norte 19 Sudoeste 0 -- -- 61
2019-08-04 02:00:00 21.2 4 Norte 21 Sur 0 -- -- 53
2019-08-04 01:00:00 21.8 12 Sur 18 Sudoeste 0 -- -- 58
2019-08-04 00:00:00 20 10 Oeste 14 Oeste 0 -- -- 33
2019-08-03 23:00:00 22.3 6 Sudoeste 16 Oeste 0 -- -- 28
2019-08-03 22:00:00 26.6 10 Oeste 18 Oeste 0 -- -- 23
2019-08-03 21:00:00 30.6 15 Oeste 26 Oeste 0 -- -- 21
2019-08-03 20:00:00 32.5 16 Oeste 33 Oeste 0 -- -- 18
2019-08-03 19:00:00 33.5 15 Noroeste 32 Noroeste 0 -- -- 18
2019-08-03 18:00:00 33.7 21 Oeste 41 Noroeste 0 -- -- 17
2019-08-03 17:00:00 34 20 Oeste 39 Oeste 0 -- -- 18
2019-08-03 16:00:00 34.1 15 Oeste 27 Oeste 0 -- -- 19
2019-08-03 15:00:00 32.6 11 Norte 20 Norte 0 -- -- 28
2019-08-03 14:00:00 32 6 Sudeste 19 Sudeste 0 -- -- 30
2019-08-03 13:00:00 30.2 8 Oeste 19 Sudeste 0 -- -- 35
2019-08-03 12:00:00 29.1 10 Sudeste 19 Sur 0 -- -- 38
2019-08-03 11:00:00 26.3 12 Sur 21 Sur 0 -- -- 43
2019-08-03 10:00:00 23.7 7 Sur 13 Sudeste 0 -- -- 50
2019-08-03 09:00:00 19.3 4 Este 6 Este 0 -- -- 64
2019-08-03 08:00:00 15.1 0 Calma 4 Oeste 0 -- -- 78
2019-08-03 07:00:00 14.1 3 Sudoeste 5 Sudoeste 0 -- -- 76
2019-08-03 06:00:00 14.6 3 Sur 7 Sudeste 0 -- -- 75
2019-08-03 05:00:00 15.4 2 Oeste 9 Sudeste 0 -- -- 73
2019-08-03 04:00:00 15.8 4 Sur 13 Sudeste 0 -- -- 72
2019-08-03 03:00:00 16.6 10 Sudeste 18 Sudeste 0 -- -- 68
2019-08-03 02:00:00 18.6 13 Este 20 Sudeste 0 -- -- 58
2019-08-03 01:00:00 18.7 8 Sudeste 15 Este 0 -- -- 52
2019-08-03 00:00:00 19.5 5 Sudeste 8 Este 0 -- -- 49
2019-08-02 23:00:00 21.4 7 Este 15 Este 0 -- -- 45
2019-08-02 22:00:00 23.2 11 Este 19 Este 0 -- -- 44
2019-08-02 21:00:00 26.3 13 Este 31 Este 0 -- -- 38
2019-08-02 20:00:00 28.5 19 Este 37 Nordeste 0 -- -- 35
2019-08-02 19:00:00 29.5 21 Nordeste 46 Nordeste 0 -- -- 34
2019-08-02 18:00:00 30.6 19 Nordeste 32 Este 0 -- -- 32
2019-08-02 17:00:00 31.1 14 Nordeste 27 Nordeste 0 -- -- 30
2019-08-02 16:00:00 30.8 17 Nordeste 28 Nordeste 0 -- -- 31
2019-08-02 15:00:00 30 14 Nordeste 29 Nordeste 0 -- -- 35
2019-08-02 14:00:00 28.7 6 Nordeste 18 Norte 0 -- -- 39
2019-08-02 13:00:00 27.3 8 Nordeste 16 Sudoeste 0 -- -- 45
2019-08-02 12:00:00 25.3 5 Sudoeste 14 Este 0 -- -- 55
2019-08-02 11:00:00 22.8 4 Sudeste 11 Este 0 -- -- 62
2019-08-02 10:00:00 20.2 5 Nordeste 14 Nordeste 0 -- -- 72
2019-08-02 09:00:00 17.4 8 Este 12 Este 0 -- -- 84
2019-08-02 08:00:00 14.7 5 Sudeste 12 Este 0 -- -- 94
2019-08-02 07:00:00 14.1 8 Este 11 Este 0 -- -- 94
2019-08-02 06:00:00 14.3 0 Calma 10 Este 0 -- -- 93
2019-08-02 05:00:00 15 7 Sudeste 10 Este 0 -- -- 93
2019-08-02 04:00:00 15.5 7 Este 13 Este 0 -- -- 91
2019-08-02 03:00:00 16.3 6 Este 16 Nordeste 0 -- -- 87
2019-08-02 02:00:00 17.4 8 Este 37 Nordeste 0 -- -- 85
2019-08-02 01:00:00 18.7 23 Este 37 Nordeste 0 -- -- 79
2019-08-02 00:00:00 20.7 25 Este 39 Nordeste 0 -- -- 71
2019-08-01 23:00:00 22.3 19 Este 34 Nordeste 0 -- -- 54
2019-08-01 22:00:00 24.9 11 Este 26 Este 0 -- -- 46
2019-08-01 21:00:00 28.3 6 Norte 26 Oeste 0 -- -- 40
2019-08-01 20:00:00 30.5 17 Oeste 27 Oeste 0 -- -- 27
2019-08-01 19:00:00 31.7 13 Oeste 34 Oeste 0 -- -- 25
2019-08-01 18:00:00 32.3 16 Noroeste 39 Noroeste 0 -- -- 24
2019-08-01 17:00:00 32 19 Oeste 31 Oeste 0 -- -- 25
2019-08-01 16:00:00 29.7 7 Nordeste 31 Este 0 -- -- 34
2019-08-01 15:00:00 29.1 5 Nordeste 16 Este 0 -- -- 35
2019-08-01 14:00:00 28.8 9 Este 18 Nordeste 0 -- -- 36
2019-08-01 13:00:00 27.2 6 Este 16 Sudeste 0 -- -- 39
2019-08-01 12:00:00 25.3 6 Sur 14 Sudoeste 0 -- -- 41
2019-08-01 11:00:00 23.4 3 Noroeste 18 Sudeste 0 -- -- 44
2019-08-01 10:00:00 21.4 13 Sur 19 Sur 0 -- -- 55
2019-08-01 09:00:00 18.4 8 Sudoeste 16 Sur 0 -- -- 70
2019-08-01 08:00:00 16.4 7 Sudoeste 21 Sur 0 -- -- 80
2019-08-01 07:00:00 15.2 12 Sur 19 Sur 0 -- -- 89
2019-08-01 06:00:00 15.8 12 Sudeste 25 Sudeste 0 -- -- 89
2019-08-01 05:00:00 16.4 15 Sudeste 26 Sudeste 0 -- -- 87
2019-08-01 04:00:00 17.1 22 Sudeste 33 Sudeste 0 -- -- 86
2019-08-01 03:00:00 18.1 17 Sur 45 Sur 0 -- -- 81
2019-08-01 02:00:00 18.6 27 Sur 35 Sur 0 -- -- 80
2019-08-01 01:00:00 19.2 11 Sudeste 22 Sudeste 0 -- -- 76
2019-08-01 00:00:00 19.7 8 Sudeste 27 Sur 0 -- -- 74
2019-07-31 23:00:00 20.4 19 Sudeste 28 Sur 0 -- -- 71
2019-07-31 22:00:00 21.4 22 Sur 36 Sur 0 -- -- 67
2019-07-31 21:00:00 22.8 27 Sur 44 Sur 0 -- -- 62
2019-07-31 20:00:00 25.5 30 Sur 44 Sur 0 -- -- 53
2019-07-31 19:00:00 27.3 33 Sudeste 45 Sudeste 0 -- -- 47
2019-07-31 18:00:00 28.9 27 Sudeste 42 Sudeste 0 -- -- 39
2019-07-31 17:00:00 29.1 27 Sudeste 44 Sudeste 0 -- -- 35
2019-07-31 16:00:00 29.7 29 Sudeste 45 Sudeste 0 -- -- 34
2019-07-31 15:00:00 28.8 22 Sudeste 38 Sudeste 0 -- -- 37
2019-07-31 14:00:00 27.5 21 Sudeste 43 Sudeste 0 -- -- 40
2019-07-31 13:00:00 24.9 14 Sudeste 28 Sudeste 0 -- -- 44
2019-07-31 12:00:00 22.3 12 Sudeste 23 Sudeste 0 -- -- 47
2019-07-31 11:00:00 19.5 14 Este 24 Este 0 -- -- 50
2019-07-31 10:00:00 16.7 15 Este 21 Este 0 -- -- 54
2019-07-31 09:00:00 14.3 14 Este 19 Este 0 -- -- 60
2019-07-31 08:00:00 11.8 10 Nordeste 14 Este 0 -- -- 69
2019-07-31 07:00:00 11.1 8 Este 20 Este 0 -- -- 70
2019-07-31 06:00:00 11.6 8 Este 23 Este 0 -- -- 68
2019-07-31 05:00:00 12.1 11 Este 25 Este 0 -- -- 68
2019-07-31 04:00:00 12 8 Este 18 Este 0 -- -- 67
2019-07-31 03:00:00 12.9 12 Este 20 Este 0 -- -- 63
2019-07-31 02:00:00 12.8 12 Este 28 Este 0 -- -- 66
2019-07-31 01:00:00 13.3 21 Nordeste 34 Este 0 -- -- 65
2019-07-31 00:00:00 13.9 18 Este 33 Nordeste 0 -- -- 62
2019-07-30 23:00:00 15.1 21 Nordeste 33 Este 0 -- -- 58
2019-07-30 22:00:00 16.5 22 Nordeste 44 Este 0 -- -- 55
2019-07-30 21:00:00 19 26 Nordeste 40 Este 0 -- -- 48
2019-07-30 20:00:00 21.5 26 Nordeste 38 Nordeste 0 -- -- 41
2019-07-30 19:00:00 22.8 28 Este 42 Nordeste 0 -- -- 39
2019-07-30 18:00:00 24.2 26 Nordeste 37 Nordeste 0 -- -- 39
2019-07-30 17:00:00 25.4 21 Nordeste 34 Este 0 -- -- 38
2019-07-30 16:00:00 25.5 13 Norte 21 Nordeste 0 -- -- 38
2019-07-30 15:00:00 24.3 12 Norte 19 Nordeste 0 -- -- 41
2019-07-30 14:00:00 23.1 6 Sudeste 24 Nordeste 0 -- -- 43
2019-07-30 13:00:00 21.2 6 Nordeste 18 Norte 0 -- -- 49
2019-07-30 12:00:00 19.2 9 Norte 18 Nordeste 0 -- -- 58
2019-07-30 11:00:00 17.5 7 Nordeste 16 Nordeste 0 -- -- 64
2019-07-30 10:00:00 16.7 7 Nordeste 15 Este 0 -- -- 69
2019-07-30 09:00:00 14.1 12 Este 16 Este 0 -- -- 81
2019-07-30 08:00:00 12.4 6 Este 13 Este 0 -- -- 89
2019-07-30 07:00:00 10.2 3 Sudeste 6 Este 0 -- -- 89
2019-07-30 06:00:00 11.1 3 Sudeste 12 Este 0 -- -- 89
2019-07-30 05:00:00 11.6 5 Este 9 Este 0 -- -- 88
2019-07-30 04:00:00 12.3 5 Este 10 Este 0 -- -- 83
2019-07-30 03:00:00 14.1 3 Noroeste 8 Sur 0 -- -- 68
2019-07-30 02:00:00 16 3 Este 12 Sudeste 0 -- -- 71
2019-07-30 01:00:00 17.1 8 Sudeste 12 Noroeste 0 -- -- 60
2019-07-30 00:00:00 20.6 7 Noroeste 15 Noroeste 0 -- -- 43
2019-07-29 23:00:00 22.8 11 Noroeste 22 Oeste 0 -- -- 36
2019-07-29 22:00:00 24.6 9 Oeste 19 Oeste 0 -- -- 31
2019-07-29 21:00:00 28 12 Oeste 32 Oeste 0 -- -- 27
2019-07-29 20:00:00 29.7 18 Oeste 35 Oeste 0 -- -- 24
2019-07-29 19:00:00 30.6 15 Oeste 37 Noroeste 0 -- -- 23
2019-07-29 18:00:00 30.6 17 Oeste 39 Oeste 0 -- -- 24
2019-07-29 17:00:00 30.8 14 Oeste 36 Noroeste 0 -- -- 26
2019-07-29 16:00:00 30.5 17 Oeste 39 Oeste 0 -- -- 27
2019-07-29 15:00:00 29.8 20 Oeste 40 Oeste 0 -- -- 28
2019-07-29 14:00:00 29 21 Oeste 39 Oeste 0 -- -- 30
2019-07-29 13:00:00 28.2 19 Oeste 43 Oeste 0 -- -- 30
2019-07-29 12:00:00 26.6 15 Noroeste 40 Oeste 0 -- -- 33
2019-07-29 11:00:00 24.4 5 Noroeste 10 Norte 0 -- -- 37
2019-07-29 10:00:00 19.8 4 Norte 8 Nordeste 0 -- -- 52
2019-07-29 09:00:00 16.5 2 Este 4 Nordeste 0 -- -- 63
2019-07-29 08:00:00 11.1 3 Oeste 6 Oeste 0 -- -- 79
2019-07-29 07:00:00 9.3 2 Nordeste 3 Noroeste 0 -- -- 80
2019-07-29 06:00:00 10.1 2 Norte 5 Oeste 0 -- -- 79
2019-07-29 05:00:00 10.6 0 Calma 4 Oeste 0 -- -- 77
2019-07-29 04:00:00 10.9 3 Sudoeste 8 Oeste 0 -- -- 76
2019-07-29 03:00:00 11.6 6 Oeste 12 Sudoeste 0 -- -- 74
2019-07-29 02:00:00 12.6 6 Sudoeste 9 Sudoeste 0 -- -- 71
2019-07-29 01:00:00 14.5 5 Este 12 Este 0 -- -- 65
2019-07-29 00:00:00 15.8 4 Este 13 Este 0 -- -- 62
2019-07-28 23:00:00 17.3 9 Este 23 Este 0 -- -- 57
2019-07-28 22:00:00 18.9 8 Este 19 Nordeste 0 -- -- 51
2019-07-28 21:00:00 22.5 15 Este 22 Nordeste 0 -- -- 41
2019-07-28 20:00:00 25.7 8 Norte 19 Norte 0 -- -- 28
2019-07-28 19:00:00 25.6 13 Norte 26 Norte 0 -- -- 29
2019-07-28 18:00:00 25.5 15 Nordeste 27 Nordeste 0 -- -- 30
2019-07-28 17:00:00 25.1 17 Nordeste 38 Nordeste 0 -- -- 31
2019-07-28 16:00:00 24.2 12 Nordeste 25 Nordeste 0 -- -- 34
2019-07-28 15:00:00 23.4 8 Nordeste 18 Nordeste 0 -- -- 38
2019-07-28 14:00:00 21.8 9 Noroeste 19 Nordeste 0 -- -- 41
2019-07-28 13:00:00 19.6 10 Nordeste 24 Nordeste 0 -- -- 48
2019-07-28 12:00:00 18.4 10 Nordeste 21 Norte 0 -- -- 52
2019-07-28 11:00:00 16.5 11 Norte 20 Norte 0 -- -- 59
2019-07-28 10:00:00 14.4 5 Norte 11 Noroeste 0 -- -- 68
2019-07-28 09:00:00 12.3 6 Noroeste 10 Noroeste 0 -- -- 77
2019-07-28 08:00:00 9.4 2 Sudoeste 12 Sudoeste 0 -- -- 90
2019-07-28 07:00:00 8 2 Este 12 Oeste 0 -- -- 86
2019-07-28 06:00:00 9.4 9 Oeste 14 Oeste 0 -- -- 86
2019-07-28 05:00:00 10.1 5 Oeste 14 Norte 0 -- -- 83
2019-07-28 04:00:00 10.9 9 Norte 15 Noroeste 0 -- -- 81
2019-07-28 03:00:00 12.1 8 Noroeste 14 Noroeste 0 -- -- 77
2019-07-28 02:00:00 12.9 5 Nordeste 17 Norte 0 -- -- 73
2019-07-28 01:00:00 14.2 10 Norte 25 Nordeste 0 -- -- 72
2019-07-28 00:00:00 14.6 9 Nordeste 21 Nordeste 0 -- -- 74
2019-07-27 23:00:00 15.9 11 Norte 22 Norte 0 -- -- 65
2019-07-26 12:00:00 -- -- -- -- -- -- -- -- --
2019-07-26 11:00:00 21.9 14 Este 22 Nordeste 0 -- -- 63
2019-07-26 10:00:00 20.4 8 Este 24 Este 0 -- -- 65
2019-07-26 09:00:00 18.6 10 Este 20 Este 0 -- -- 75
2019-07-26 08:00:00 17.7 5 Norte 11 Sudoeste 0 -- -- 73
2019-07-26 07:00:00 18.2 6 Noroeste 15 Sudoeste 0 -- -- 64
2019-07-26 06:00:00 18.7 3 Sudeste 27 Sur 0 -- -- 63
2019-07-26 05:00:00 19.7 22 Sur 35 Sur 0 -- -- 60
2019-07-26 04:00:00 19.7 24 Sur 37 Sur 0 -- -- 63
2019-07-26 03:00:00 21.2 28 Sur 36 Sudoeste 0 -- -- 58
2019-07-26 02:00:00 22 25 Sur 40 Sur 0 -- -- 55
2019-07-26 01:00:00 22.2 30 Sur 39 Sur 0 -- -- 58
2019-07-26 00:00:00 22.1 19 Sur 27 Sudoeste 0 -- -- 61
2019-07-25 23:00:00 21.9 14 Sur 47 Sur 0.2 -- -- 60
2019-07-25 22:00:00 22.3 26 Sur 42 Sur 0 -- -- 60
2019-07-25 21:00:00 22.1 26 Sur 45 Sur 0.6 -- -- 63
2019-07-25 20:00:00 25.4 21 Sur 34 Sur 0 -- -- 52
2019-07-25 19:00:00 30.4 19 Sur 28 Sur 0 -- -- 30
2019-07-25 18:00:00 31.6 15 Sur 33 Sudoeste 0 -- -- 28
2019-07-25 17:00:00 32.9 18 Sudeste 32 Sur 0 -- -- 25
2019-07-25 16:00:00 31.8 23 Sudeste 45 Sur 0 -- -- 25
2019-07-25 15:00:00 29.7 36 Sur 53 Sur 0 -- -- 26
2019-07-25 14:00:00 27.1 23 Sur 49 Sur 0 -- -- 39
2019-07-25 13:00:00 32.2 8 Nordeste 18 Este 0 -- -- 28
2019-07-25 12:00:00 30.7 7 Sur 15 Sur 0 -- -- 29
2019-07-25 11:00:00 28.2 6 Sudoeste 23 Sur 0 -- -- 32
2019-07-25 10:00:00 26.2 19 Sur 29 Sudoeste 0 -- -- 34
2019-07-25 09:00:00 24 22 Sur 37 Sur 0 -- -- 37
2019-07-25 08:00:00 21.3 22 Sur 31 Sur 0 -- -- 42
2019-07-25 07:00:00 19.7 9 Sur 23 Sur 0 -- -- 47
2019-07-25 06:00:00 20.4 6 Sur 18 Sudoeste 0 -- -- 45
2019-07-25 05:00:00 20.8 11 Sur 19 Sudeste 0 -- -- 44
2019-07-25 04:00:00 20.1 3 Norte 13 Nordeste 0 -- -- 47
2019-07-25 03:00:00 22.3 6 Sur 35 Sur 0 -- -- 43
2019-07-25 02:00:00 23.5 26 Sur 40 Sur 0 -- -- 39
2019-07-25 01:00:00 24.3 28 Sur 37 Sur 0 -- -- 38
2019-07-25 00:00:00 24.8 18 Sur 27 Sur 0 -- -- 38
2019-07-24 23:00:00 25.7 19 Sudoeste 27 Sur 0 -- -- 37
2019-07-24 22:00:00 28 18 Sudoeste 36 Sur 0 -- -- 32
2019-07-24 21:00:00 30 25 Sur 34 Sur 0 -- -- 26
2019-07-24 20:00:00 31.5 19 Sur 42 Sur 0 -- -- 22
2019-07-24 19:00:00 32.4 16 Sudeste 29 Sudeste 0 -- -- 21
2019-07-24 18:00:00 32.6 20 Sur 39 Sur 0 -- -- 21
2019-07-24 17:00:00 32.5 13 Nordeste 33 Sur 0 -- -- 23
2019-07-24 16:00:00 33.1 20 Sur 38 Sur 0 -- -- 21
2019-07-24 15:00:00 34.4 20 Sudeste 48 Sur 0 -- -- 21
2019-07-24 14:00:00 33.5 22 Sur 37 Sudeste 0 -- -- 24
2019-07-24 13:00:00 32.1 21 Sur 31 Sudeste 0 -- -- 24
2019-07-24 12:00:00 30.5 19 Sur 29 Sur 0 -- -- 26
2019-07-24 11:00:00 26.9 14 Sudeste 20 Sudeste 0 -- -- 36
2019-07-24 10:00:00 24.9 7 Este 15 Sur 0 -- -- 42
2019-07-24 09:00:00 22.5 4 Sudeste 21 Sur 0 -- -- 52
2019-07-24 08:00:00 20.1 8 Oeste 15 Este 0 -- -- 53
2019-07-24 07:00:00 17.3 4 Sudeste 14 Sudoeste 0 -- -- 62
2019-07-24 06:00:00 15.4 5 Sudeste 12 Sudoeste 0 -- -- 73
2019-07-24 05:00:00 16.6 12 Sudoeste 15 Sudoeste 0 -- -- 69
2019-07-24 04:00:00 18.4 9 Sudeste 17 Sudeste 0 -- -- 66
2019-07-24 03:00:00 19.8 10 Oeste 18 Noroeste 0 -- -- 61
2019-07-24 02:00:00 20.2 3 Sudeste 13 Oeste 0 -- -- 45
2019-07-24 01:00:00 22.3 7 Sur 23 Sur 0 -- -- 40
2019-07-24 00:00:00 25.5 17 Sudoeste 35 Sur 0 -- -- 34
2019-07-23 23:00:00 26.5 30 Sur 42 Sur 0 -- -- 33
2019-07-23 22:00:00 27.6 26 Sur 37 Sur 0 -- -- 31
2019-07-23 21:00:00 30.4 28 Sur 42 Sur 0 -- -- 23
2019-07-23 20:00:00 32.6 32 Sur 45 Sur 0 -- -- 19
2019-07-23 19:00:00 33.8 32 Sur 46 Sur 0 -- -- 19
2019-07-23 18:00:00 33.1 21 Sur 36 Sur 0 -- -- 19
2019-07-23 17:00:00 33.9 24 Sur 44 Sudeste 0 -- -- 19
2019-07-23 16:00:00 35 25 Sur 45 Sur 0 -- -- 18
2019-07-23 15:00:00 35.8 29 Sur 55 Sur 0 -- -- 19
2019-07-23 14:00:00 34.4 27 Sudeste 43 Sur 0 -- -- 21
2019-07-23 13:00:00 33.2 24 Sudeste 37 Sur 0 -- -- 23
2019-07-23 12:00:00 30.8 13 Sudeste 24 Sur 0 -- -- 25
2019-07-23 11:00:00 28.9 11 Sudeste 18 Sudeste 0 -- -- 27
2019-07-23 10:00:00 24.2 4 Noroeste 10 Sudeste 0 -- -- 33
2019-07-23 09:00:00 19.7 2 Este 12 Oeste 0 -- -- 43
2019-07-23 08:00:00 16.1 5 Sudoeste 12 Noroeste 0 -- -- 51
2019-07-23 07:00:00 17 8 Norte 10 Norte 0 -- -- 45
2019-07-23 06:00:00 16.7 5 Sudoeste 8 Oeste 0 -- -- 47
2019-07-23 05:00:00 18.5 4 Noroeste 12 Sudeste 0 -- -- 42
2019-07-23 04:00:00 19.6 3 Nordeste 10 Norte 0 -- -- 40
2019-07-23 03:00:00 19.6 0 Calma 26 Nordeste 0 -- -- 42
2019-07-23 02:00:00 19.8 5 Norte 15 Este 0 -- -- 44
2019-07-23 01:00:00 21 12 Este 19 Este 0 -- -- 42
2019-07-23 00:00:00 23.5 12 Sur 32 Sur 0 -- -- 38
2019-07-22 23:00:00 24.9 22 Sur 37 Sur 0 -- -- 36
2019-07-22 22:00:00 27.1 28 Sur 38 Sur 0 -- -- 32
2019-07-22 21:00:00 29.2 28 Sur 50 Sur 0 -- -- 24
2019-07-22 20:00:00 31.6 35 Sur 54 Sur 0 -- -- 21
2019-07-22 19:00:00 33.5 31 Sur 45 Sur 0 -- -- 18
2019-07-22 18:00:00 34.6 26 Sur 48 Sur 0 -- -- 19
2019-07-22 17:00:00 34.8 24 Sur 44 Sur 0 -- -- 18
2019-07-22 16:00:00 34.7 27 Sur 47 Sur 0 -- -- 19
2019-07-22 15:00:00 34.1 26 Sur 46 Sur 0 -- -- 19
2019-07-22 14:00:00 31.9 23 Sur 39 Sudeste 0 -- -- 19
2019-07-22 13:00:00 31.2 27 Sur 38 Sur 0 -- -- 19
2019-07-22 12:00:00 30.9 23 Sudeste 33 Sudeste 0 -- -- 19
2019-07-22 11:00:00 28.3 21 Sur 30 Sur 0 -- -- 21
2019-07-22 10:00:00 25.4 8 Sur 12 Sur 0 -- -- 32
2019-07-22 09:00:00 20.5 0 Calma 4 Sudeste 0 -- -- 48
2019-07-22 08:00:00 16.4 0 Calma 5 Norte 0 -- -- 64
2019-07-22 07:00:00 16.5 4 Norte 16 Sudeste 0 -- -- 63
2019-07-22 06:00:00 17.8 5 Sudeste 17 Sur 0 -- -- 55
2019-07-22 05:00:00 18.2 14 Sudeste 22 Sudeste 0 -- -- 57
2019-07-22 04:00:00 19.5 11 Sudeste 27 Sur 0 -- -- 55
2019-07-22 03:00:00 20.2 17 Sur 25 Sur 0 -- -- 55
2019-07-22 02:00:00 20.4 9 Sur 18 Sur 0 -- -- 54
2019-07-22 01:00:00 22.5 8 Sudoeste 29 Sur 0 -- -- 48
2019-07-22 00:00:00 24.2 22 Sur 40 Sur 0 -- -- 42